• Join FlightAware (Why Join?)
  • Login
  • US Flag GB Flag 
01:46 EDT


 

Airport Tracker/Info


-or-


 

Live Flight TrackerFlight Track Log ✈ AAY860 ✈ 27-Jun-2014 ✈ KPIE - KLEX

Flight Track Log - Related Links

Times and Time Zones

All times are in EDT time to prevent confusion due to time zone crossing. See the AAY860 flight status page for this flight to view local times or setup timezone preferences in your user account.

Time Position Orientation Groundspeed Altitude Reporting Facility
EDT Latitude Longitude Course Direction KTS MPH feet Rate Location/Type
06:52 27.9333 -82.7000 North 151 174 900  Level Tampa TRACON
06:53 27.9500 -82.6833 41° Northeast 157 181 2,100 1,920 Climbing Tampa TRACON
06:54 28.0000 -82.6667 16° North 168 193 4,000 1,800 Climbing Tampa TRACON
06:55 28.0500 -82.6667 360° North 191 220 5,700 1,860 Climbing Tampa TRACON
06:57 28.7857 -82.6333 North  Level FlightAware Approximate
07:01 28.5354 -82.6658 North 373 429 17,100  Level FlightAware ADS-B (KMCO)
07:01 28.6528 -82.6600 North 379 436 18,800 1,560 Climbing FlightAware ADS-B (KMCO)
07:06 29.1958 -82.6318 North 436 502 26,000 1,260 Climbing FlightAware ADS-B (KMCO)
07:11 29.8478 -82.5977 North 465 535 31,600 1,080 Climbing FlightAware ADS-B (KMCO)
07:12 29.9593 -82.5920 North 459 528 32,900 1,140 Climbing FlightAware ADS-B (KMCO)
07:14 30.1429 -82.5823 North 455 524 34,400 1,080 Climbing FlightAware ADS-B (KMCO)
07:14 30.2322 -82.5775 North 451 519 35,200 840 Climbing FlightAware ADS-B (KMCO)
07:17 30.5102 -82.5628 North 448 516 37,000 540 Climbing FlightAware ADS-B (KMCO)
07:18 30.6169 -82.5619 North 441 507 37,000 -60 Level Jacksonville Center
07:19 30.7381 -82.5542 North 441 507 36,900 -60 Descending Jacksonville Center
07:20 30.8631 -82.5464 North 441 507 36,900  Level Jacksonville Center
07:21 30.9883 -82.5386 North 441 507 37,000  Climbing Jacksonville Center
07:22 31.1136 -82.5358 North 441 507 37,000  Level Jacksonville Center
07:23 31.2369 -82.5281 North 441 507 37,000  Level Jacksonville Center
07:24 31.4450 -82.5153 North 439 505 37,000  Level Atlanta Center
07:25 31.5683 -82.5228 357° North 439 505 37,000  Level Atlanta Center
07:26 31.6897 -82.5597 345° North 439 505 37,000  Level Atlanta Center
07:27 31.8069 -82.5969 345° North 439 505 37,000  Level Atlanta Center
07:28 31.9264 -82.6392 343° North 439 505 37,000  Level Atlanta Center
07:29 32.0458 -82.6764 345° North 439 505 37,000  Level Atlanta Center
07:30 32.1675 -82.7189 344° North 439 505 37,000  Level Atlanta Center
07:31 32.2847 -82.7589 344° North 439 505 37,000  Level Atlanta Center
07:32 32.4042 -82.7964 345° North 439 505 37,000  Level Atlanta Center
07:33 32.5319 -82.8414 343° North 433 498 37,000  Level Atlanta Center
07:34 32.6492 -82.8819 344° North 428 493 37,000  Level Atlanta Center
07:35 32.7642 -82.9222 344° North 428 493 37,000  Level Atlanta Center
07:36 32.8794 -82.9603 345° North 428 493 37,000  Level Atlanta Center
07:37 32.9944 -82.9986 344° North 428 493 37,000  Level Atlanta Center
07:38 33.1117 -83.0369 345° North 428 493 37,000  Level Atlanta Center
07:39 33.2269 -83.0778 343° North 428 493 37,000  Level Atlanta Center
07:40 33.3442 -83.1189 344° North 428 493 37,000  Level Atlanta Center
07:41 33.4592 -83.1550 345° North 428 493 37,000 -180 Level Atlanta Center
07:42 33.5722 -83.1961 343° North 428 493 36,700 -180 Descending Atlanta Center
07:48 34.2403 -83.4079 347° North 427 491 36,000 -120 Descending FlightAware ADS-B (KDZJ)
07:49 34.3138 -83.4290 347° North 429 494 36,000  Level FlightAware ADS-B (KDZJ)
07:49 34.3964 -83.4528 347° North 432 497 36,000  Level FlightAware ADS-B (KDZJ)
07:50 34.4650 -83.4725 347° North 434 499 36,000  Level FlightAware ADS-B (KDZJ)
07:51 34.5471 -83.4960 347° North 433 498 36,000  Level FlightAware ADS-B (KDZJ)
07:51 34.6324 -83.5206 347° North 433 498 36,000  Level FlightAware ADS-B (KDZJ)
07:52 34.7494 -83.5544 347° North 430 495 36,000  Level FlightAware ADS-B (KDZJ)
07:53 34.8274 -83.5771 347° North 428 493 36,000  Level FlightAware ADS-B (KDZJ)
07:54 34.9023 -83.5990 347° North 427 491 36,000  Level FlightAware ADS-B (KDZJ)
07:54 34.9808 -83.6218 346° North 418 481 36,000  Level FlightAware ADS-B (KDZJ)
07:55 35.0584 -83.6444 346° North 418 481 36,000  Level FlightAware ADS-B (KDZJ)
07:56 35.1341 -83.6665 346° North 417 480 36,000  Level FlightAware ADS-B (KDZJ)
07:56 35.2113 -83.6892 346° North 417 480 36,000  Level FlightAware ADS-B (KDZJ)
07:57 35.2885 -83.7119 346° North 417 480 36,000  Level FlightAware ADS-B (KDZJ)
07:57 35.3461 -83.7288 346° North 416 479 36,000  Level FlightAware ADS-B (KDZJ)
07:58 35.4320 -83.7540 346° North 416 479 36,000  Level FlightAware ADS-B (KDZJ)
07:59 35.5241 -83.7813 346° North 417 480 36,000  Level FlightAware ADS-B (KDZJ)
08:00 35.6325 -83.8164 346° North 414 476 36,000  Level Atlanta Center
08:01 35.7472 -83.8494 347° North 414 476 36,000  Level Atlanta Center
08:02 35.8600 -83.8825 347° North 414 476 36,000 -60 Level Atlanta Center
08:03 35.9747 -83.9156 347° North 414 476 35,900 -840 Descending Atlanta Center
08:05 36.2081 -83.9758 348° North 434 499 33,500 -1,200 Descending Indianapolis Center
08:06 36.3503 -84.0167 347° North 438 504 32,400 -1,020 Descending Indianapolis Center
08:07 36.4681 -84.0481 348° North 438 504 31,400 -1,020 Descending Indianapolis Center
08:08 36.5853 -84.0811 347° North 437 503 30,400 -1,020 Descending Indianapolis Center
08:09 36.6997 -84.1128 347° North 426 490 29,400 -1,020 Descending Indianapolis Center
08:11 36.8144 -84.1447 347° North 423 487 28,400 -960 Descending Indianapolis Center
08:12 36.9275 -84.1775 347° North 420 483 27,500 -1,500 Descending Indianapolis Center
08:13 37.0378 -84.2078 348° North 411 473 25,400 -2,340 Descending Indianapolis Center
08:14 37.1658 -84.2439 347° North 406 467 22,700 -2,460 Descending Indianapolis Center
08:15 37.2750 -84.2750 347° North 405 466 20,400 -1,980 Descending Indianapolis Center
08:20 37.7697 -84.4159 347° North 323 372 10,800 -1,800 Descending FlightAware ADS-B (KBRY)
08:21 37.8586 -84.4286 347° North 323 372 9,400 -1,320 Descending Indianapolis Center
08:22 37.9403 -84.4353 356° North 300 345 8,100 -1,800 Descending Indianapolis Center
08:23 38.0181 -84.4414 356° North 286 329 5,800 -1,800 Descending Indianapolis Center
08:24 38.0844 -84.3939 29° Northeast 282 325 4,400 -960 Descending Indianapolis Center
08:25 38.1294 -84.4506 315° West 244 281 3,900 -780 Descending Indianapolis Center
08:26 38.1061 -84.5253 248° West 233 268 2,800 -1,080 Descending Indianapolis Center
08:27 38.0683 -84.5697 223° Southwest 213 245 1,700 -840 Descending Indianapolis Center
08:28 38.0361 -84.6058 221° Southwest 193 222 1,100 -600 Descending Indianapolis Center
08:30 38.0333 -84.6000 302° West  Level FlightAware Approximate